sensor_id;sensor_type;location;lat;lon;timestamp;P1;durP1;ratioP1;P2;durP2;ratioP2
5688;SDS011;2869;50.432;8.680;2023-06-14T00:00:02;11.40;;;6.50;;
5688;SDS011;2869;50.432;8.680;2023-06-14T00:02:31;12.70;;;6.23;;
5688;SDS011;2869;50.432;8.680;2023-06-14T00:04:57;7.13;;;6.43;;
5688;SDS011;2869;50.432;8.680;2023-06-14T00:07:33;6.67;;;5.97;;
5688;SDS011;2869;50.432;8.680;2023-06-14T00:10:00;9.70;;;6.23;;
5688;SDS011;2869;50.432;8.680;2023-06-14T00:12:27;9.07;;;6.47;;
5688;SDS011;2869;50.432;8.680;2023-06-14T00:14:55;7.40;;;6.07;;
5688;SDS011;2869;50.432;8.680;2023-06-14T00:17:22;8.03;;;6.27;;
5688;SDS011;2869;50.432;8.680;2023-06-14T00:19:49;8.67;;;6.00;;
5688;SDS011;2869;50.432;8.680;2023-06-14T00:22:16;7.63;;;5.90;;
5688;SDS011;2869;50.432;8.680;2023-06-14T00:24:43;9.00;;;6.03;;
5688;SDS011;2869;50.432;8.680;2023-06-14T00:27:09;9.33;;;5.73;;
5688;SDS011;2869;50.432;8.680;2023-06-14T00:29:36;6.90;;;5.60;;
5688;SDS011;2869;50.432;8.680;2023-06-14T00:32:04;10.13;;;6.10;;
5688;SDS011;2869;50.432;8.680;2023-06-14T00:34:31;10.43;;;5.90;;
5688;SDS011;2869;50.432;8.680;2023-06-14T00:36:58;9.00;;;5.37;;
5688;SDS011;2869;50.432;8.680;2023-06-14T00:39:25;9.50;;;5.40;;
5688;SDS011;2869;50.432;8.680;2023-06-14T00:41:51;8.30;;;5.90;;
5688;SDS011;2869;50.432;8.680;2023-06-14T00:44:18;7.37;;;5.63;;
5688;SDS011;2869;50.432;8.680;2023-06-14T00:46:46;12.30;;;5.80;;
5688;SDS011;2869;50.432;8.680;2023-06-14T00:49:14;7.70;;;5.90;;
5688;SDS011;2869;50.432;8.680;2023-06-14T00:51:43;9.00;;;6.50;;
5688;SDS011;2869;50.432;8.680;2023-06-14T00:54:10;9.97;;;6.40;;
5688;SDS011;2869;50.432;8.680;2023-06-14T00:56:37;10.87;;;7.30;;
5688;SDS011;2869;50.432;8.680;2023-06-14T00:59:04;13.47;;;7.03;;
5688;SDS011;2869;50.432;8.680;2023-06-14T01:01:31;9.40;;;7.27;;
5688;SDS011;2869;50.432;8.680;2023-06-14T01:03:58;9.73;;;7.03;;
5688;SDS011;2869;50.432;8.680;2023-06-14T01:06:30;8.33;;;6.47;;
5688;SDS011;2869;50.432;8.680;2023-06-14T01:09:03;8.53;;;6.10;;
5688;SDS011;2869;50.432;8.680;2023-06-14T01:11:37;15.20;;;6.63;;
5688;SDS011;2869;50.432;8.680;2023-06-14T01:14:10;13.20;;;6.90;;
5688;SDS011;2869;50.432;8.680;2023-06-14T01:16:40;16.43;;;7.87;;
5688;SDS011;2869;50.432;8.680;2023-06-14T01:19:07;9.60;;;7.10;;
5688;SDS011;2869;50.432;8.680;2023-06-14T01:21:40;9.40;;;7.77;;
5688;SDS011;2869;50.432;8.680;2023-06-14T01:24:08;8.90;;;7.63;;
5688;SDS011;2869;50.432;8.680;2023-06-14T01:26:36;7.63;;;6.50;;
5688;SDS011;2869;50.432;8.680;2023-06-14T01:29:03;19.70;;;7.27;;
5688;SDS011;2869;50.432;8.680;2023-06-14T01:31:31;13.60;;;8.13;;
5688;SDS011;2869;50.432;8.680;2023-06-14T01:34:06;8.37;;;6.93;;
5688;SDS011;2869;50.432;8.680;2023-06-14T01:36:34;8.47;;;7.00;;
5688;SDS011;2869;50.432;8.680;2023-06-14T01:39:03;10.57;;;6.93;;
5688;SDS011;2869;50.432;8.680;2023-06-14T01:41:32;11.13;;;6.70;;
5688;SDS011;2869;50.432;8.680;2023-06-14T01:44:00;8.93;;;6.93;;
5688;SDS011;2869;50.432;8.680;2023-06-14T01:46:27;9.90;;;7.03;;
5688;SDS011;2869;50.432;8.680;2023-06-14T01:48:54;9.50;;;6.53;;
5688;SDS011;2869;50.432;8.680;2023-06-14T01:51:21;11.07;;;7.03;;
5688;SDS011;2869;50.432;8.680;2023-06-14T01:53:47;9.53;;;7.83;;
5688;SDS011;2869;50.432;8.680;2023-06-14T01:56:14;10.93;;;6.50;;
5688;SDS011;2869;50.432;8.680;2023-06-14T01:58:42;8.00;;;7.20;;
5688;SDS011;2869;50.432;8.680;2023-06-14T02:01:09;11.90;;;7.20;;
5688;SDS011;2869;50.432;8.680;2023-06-14T02:03:36;8.10;;;6.93;;
5688;SDS011;2869;50.432;8.680;2023-06-14T02:06:04;9.53;;;6.47;;
5688;SDS011;2869;50.432;8.680;2023-06-14T02:08:30;14.50;;;7.37;;
5688;SDS011;2869;50.432;8.680;2023-06-14T02:10:57;10.73;;;7.60;;
5688;SDS011;2869;50.432;8.680;2023-06-14T02:13:23;10.23;;;7.17;;
5688;SDS011;2869;50.432;8.680;2023-06-14T02:15:51;14.83;;;7.83;;
5688;SDS011;2869;50.432;8.680;2023-06-14T02:18:19;11.00;;;7.00;;
5688;SDS011;2869;50.432;8.680;2023-06-14T02:20:46;9.43;;;6.50;;
5688;SDS011;2869;50.432;8.680;2023-06-14T02:23:12;7.80;;;7.00;;
5688;SDS011;2869;50.432;8.680;2023-06-14T02:25:39;10.20;;;7.30;;
5688;SDS011;2869;50.432;8.680;2023-06-14T02:28:08;10.30;;;7.57;;
5688;SDS011;2869;50.432;8.680;2023-06-14T02:30:34;7.10;;;6.40;;
5688;SDS011;2869;50.432;8.680;2023-06-14T02:33:02;7.17;;;6.53;;
5688;SDS011;2869;50.432;8.680;2023-06-14T02:35:29;10.67;;;7.33;;
5688;SDS011;2869;50.432;8.680;2023-06-14T02:37:56;11.60;;;6.83;;
5688;SDS011;2869;50.432;8.680;2023-06-14T02:40:23;6.90;;;6.17;;
5688;SDS011;2869;50.432;8.680;2023-06-14T02:42:50;7.13;;;6.43;;
5688;SDS011;2869;50.432;8.680;2023-06-14T02:45:17;9.20;;;6.00;;
5688;SDS011;2869;50.432;8.680;2023-06-14T02:47:43;10.00;;;6.57;;
5688;SDS011;2869;50.432;8.680;2023-06-14T02:50:12;9.03;;;6.13;;
5688;SDS011;2869;50.432;8.680;2023-06-14T02:52:38;11.07;;;6.10;;
5688;SDS011;2869;50.432;8.680;2023-06-14T02:55:06;7.83;;;6.00;;
5688;SDS011;2869;50.432;8.680;2023-06-14T02:57:34;8.63;;;6.67;;
5688;SDS011;2869;50.432;8.680;2023-06-14T03:00:01;14.10;;;6.33;;
5688;SDS011;2869;50.432;8.680;2023-06-14T03:02:28;7.93;;;6.20;;
5688;SDS011;2869;50.432;8.680;2023-06-14T03:04:55;9.53;;;6.27;;
5688;SDS011;2869;50.432;8.680;2023-06-14T03:07:27;7.13;;;6.30;;
5688;SDS011;2869;50.432;8.680;2023-06-14T03:09:54;10.83;;;6.30;;
5688;SDS011;2869;50.432;8.680;2023-06-14T03:12:21;8.00;;;6.27;;
5688;SDS011;2869;50.432;8.680;2023-06-14T03:14:48;10.90;;;6.20;;
5688;SDS011;2869;50.432;8.680;2023-06-14T03:17:15;19.23;;;5.93;;
5688;SDS011;2869;50.432;8.680;2023-06-14T03:19:44;9.43;;;5.83;;
5688;SDS011;2869;50.432;8.680;2023-06-14T03:22:11;8.47;;;6.03;;
5688;SDS011;2869;50.432;8.680;2023-06-14T03:24:39;9.33;;;5.80;;
5688;SDS011;2869;50.432;8.680;2023-06-14T03:27:06;9.13;;;5.93;;
5688;SDS011;2869;50.432;8.680;2023-06-14T03:29:35;15.13;;;6.50;;
5688;SDS011;2869;50.432;8.680;2023-06-14T03:32:02;7.90;;;6.30;;
5688;SDS011;2869;50.432;8.680;2023-06-14T03:34:29;9.63;;;6.13;;
5688;SDS011;2869;50.432;8.680;2023-06-14T03:36:56;9.90;;;6.80;;
5688;SDS011;2869;50.432;8.680;2023-06-14T03:39:23;9.93;;;6.40;;
5688;SDS011;2869;50.432;8.680;2023-06-14T03:41:51;11.23;;;5.87;;
5688;SDS011;2869;50.432;8.680;2023-06-14T03:44:18;12.83;;;6.60;;
5688;SDS011;2869;50.432;8.680;2023-06-14T03:46:45;12.00;;;6.20;;
5688;SDS011;2869;50.432;8.680;2023-06-14T03:49:12;12.33;;;6.60;;
5688;SDS011;2869;50.432;8.680;2023-06-14T03:51:38;10.13;;;6.10;;
5688;SDS011;2869;50.432;8.680;2023-06-14T03:54:05;9.47;;;5.73;;
5688;SDS011;2869;50.432;8.680;2023-06-14T03:56:32;9.67;;;6.20;;
5688;SDS011;2869;50.432;8.680;2023-06-14T03:59:00;7.90;;;5.77;;
5688;SDS011;2869;50.432;8.680;2023-06-14T04:01:27;8.93;;;6.03;;
5688;SDS011;2869;50.432;8.680;2023-06-14T04:03:54;13.07;;;5.67;;
5688;SDS011;2869;50.432;8.680;2023-06-14T04:06:22;6.63;;;6.00;;
5688;SDS011;2869;50.432;8.680;2023-06-14T04:08:50;8.57;;;6.17;;
5688;SDS011;2869;50.432;8.680;2023-06-14T04:11:17;9.67;;;6.67;;
5688;SDS011;2869;50.432;8.680;2023-06-14T04:13:44;7.60;;;6.60;;
5688;SDS011;2869;50.432;8.680;2023-06-14T04:16:13;11.40;;;5.70;;
5688;SDS011;2869;50.432;8.680;2023-06-14T04:18:40;9.10;;;6.90;;
5688;SDS011;2869;50.432;8.680;2023-06-14T04:21:06;10.57;;;6.07;;
5688;SDS011;2869;50.432;8.680;2023-06-14T04:23:33;8.30;;;6.30;;
5688;SDS011;2869;50.432;8.680;2023-06-14T04:26:00;16.53;;;6.07;;
5688;SDS011;2869;50.432;8.680;2023-06-14T04:28:27;9.37;;;6.70;;
5688;SDS011;2869;50.432;8.680;2023-06-14T04:30:54;9.57;;;6.23;;
5688;SDS011;2869;50.432;8.680;2023-06-14T04:33:22;10.03;;;6.17;;
5688;SDS011;2869;50.432;8.680;2023-06-14T04:35:50;9.47;;;6.00;;
5688;SDS011;2869;50.432;8.680;2023-06-14T04:38:18;10.20;;;6.10;;
5688;SDS011;2869;50.432;8.680;2023-06-14T04:40:49;10.90;;;6.20;;
5688;SDS011;2869;50.432;8.680;2023-06-14T04:43:18;12.83;;;6.00;;
5688;SDS011;2869;50.432;8.680;2023-06-14T04:45:49;7.63;;;5.83;;
5688;SDS011;2869;50.432;8.680;2023-06-14T04:48:16;7.43;;;5.70;;
5688;SDS011;2869;50.432;8.680;2023-06-14T04:50:45;9.50;;;6.00;;
5688;SDS011;2869;50.432;8.680;2023-06-14T04:53:12;15.43;;;5.90;;
5688;SDS011;2869;50.432;8.680;2023-06-14T04:55:39;8.23;;;6.10;;
5688;SDS011;2869;50.432;8.680;2023-06-14T04:58:09;7.60;;;5.70;;
5688;SDS011;2869;50.432;8.680;2023-06-14T05:00:37;9.73;;;5.83;;
5688;SDS011;2869;50.432;8.680;2023-06-14T05:03:04;8.93;;;6.10;;
5688;SDS011;2869;50.432;8.680;2023-06-14T05:05:31;10.97;;;6.50;;
5688;SDS011;2869;50.432;8.680;2023-06-14T05:08:01;12.00;;;6.00;;
5688;SDS011;2869;50.432;8.680;2023-06-14T05:10:27;13.53;;;5.67;;
5688;SDS011;2869;50.432;8.680;2023-06-14T05:12:54;6.93;;;5.10;;
5688;SDS011;2869;50.432;8.680;2023-06-14T05:15:21;6.27;;;5.63;;
5688;SDS011;2869;50.432;8.680;2023-06-14T05:17:50;9.57;;;5.40;;
5688;SDS011;2869;50.432;8.680;2023-06-14T05:20:20;5.40;;;4.90;;
5688;SDS011;2869;50.432;8.680;2023-06-14T05:22:47;6.30;;;4.97;;
5688;SDS011;2869;50.432;8.680;2023-06-14T05:25:16;15.20;;;5.60;;
5688;SDS011;2869;50.432;8.680;2023-06-14T05:27:43;5.80;;;5.03;;
5688;SDS011;2869;50.432;8.680;2023-06-14T05:30:10;5.57;;;5.07;;
5688;SDS011;2869;50.432;8.680;2023-06-14T05:32:37;6.03;;;5.07;;
5688;SDS011;2869;50.432;8.680;2023-06-14T05:35:04;8.23;;;5.37;;
5688;SDS011;2869;50.432;8.680;2023-06-14T05:37:32;6.73;;;6.03;;
5688;SDS011;2869;50.432;8.680;2023-06-14T05:39:59;12.23;;;5.40;;
5688;SDS011;2869;50.432;8.680;2023-06-14T05:42:26;9.20;;;5.57;;
5688;SDS011;2869;50.432;8.680;2023-06-14T05:44:53;6.13;;;5.40;;
5688;SDS011;2869;50.432;8.680;2023-06-14T05:47:20;8.13;;;5.10;;
5688;SDS011;2869;50.432;8.680;2023-06-14T05:49:47;8.77;;;5.67;;
5688;SDS011;2869;50.432;8.680;2023-06-14T05:52:14;9.47;;;5.33;;
5688;SDS011;2869;50.432;8.680;2023-06-14T05:54:40;10.57;;;5.27;;
5688;SDS011;2869;50.432;8.680;2023-06-14T05:57:07;12.53;;;5.37;;
5688;SDS011;2869;50.432;8.680;2023-06-14T05:59:35;5.63;;;5.10;;
5688;SDS011;2869;50.432;8.680;2023-06-14T06:02:02;9.23;;;5.47;;
5688;SDS011;2869;50.432;8.680;2023-06-14T06:04:29;7.87;;;5.77;;
5688;SDS011;2869;50.432;8.680;2023-06-14T06:06:55;12.27;;;5.77;;
5688;SDS011;2869;50.432;8.680;2023-06-14T06:09:22;10.90;;;5.70;;
5688;SDS011;2869;50.432;8.680;2023-06-14T06:11:49;7.63;;;5.97;;
5688;SDS011;2869;50.432;8.680;2023-06-14T06:14:15;10.37;;;6.60;;
5688;SDS011;2869;50.432;8.680;2023-06-14T06:16:43;8.37;;;5.70;;
5688;SDS011;2869;50.432;8.680;2023-06-14T06:19:10;7.90;;;5.80;;
5688;SDS011;2869;50.432;8.680;2023-06-14T06:21:37;8.40;;;5.53;;
5688;SDS011;2869;50.432;8.680;2023-06-14T06:24:04;10.23;;;5.53;;
5688;SDS011;2869;50.432;8.680;2023-06-14T06:26:31;12.13;;;5.33;;
5688;SDS011;2869;50.432;8.680;2023-06-14T06:28:58;6.03;;;5.10;;
5688;SDS011;2869;50.432;8.680;2023-06-14T06:31:25;10.03;;;5.00;;
5688;SDS011;2869;50.432;8.680;2023-06-14T06:33:53;7.60;;;4.20;;
5688;SDS011;2869;50.432;8.680;2023-06-14T06:36:21;8.27;;;4.90;;
5688;SDS011;2869;50.432;8.680;2023-06-14T06:38:48;5.20;;;4.40;;
5688;SDS011;2869;50.432;8.680;2023-06-14T06:41:14;5.43;;;4.13;;
5688;SDS011;2869;50.432;8.680;2023-06-14T06:43:41;9.93;;;4.43;;
5688;SDS011;2869;50.432;8.680;2023-06-14T06:46:08;7.30;;;4.47;;
5688;SDS011;2869;50.432;8.680;2023-06-14T06:48:35;4.80;;;4.20;;
5688;SDS011;2869;50.432;8.680;2023-06-14T06:51:03;5.37;;;4.00;;
5688;SDS011;2869;50.432;8.680;2023-06-14T06:53:30;8.47;;;4.17;;
5688;SDS011;2869;50.432;8.680;2023-06-14T06:55:57;5.60;;;3.43;;
5688;SDS011;2869;50.432;8.680;2023-06-14T06:58:23;4.27;;;3.97;;
5688;SDS011;2869;50.432;8.680;2023-06-14T07:00:50;7.90;;;4.00;;
5688;SDS011;2869;50.432;8.680;2023-06-14T07:03:17;4.10;;;3.80;;
5688;SDS011;2869;50.432;8.680;2023-06-14T07:05:44;6.20;;;3.87;;
5688;SDS011;2869;50.432;8.680;2023-06-14T07:08:12;7.13;;;4.27;;
5688;SDS011;2869;50.432;8.680;2023-06-14T07:10:38;7.00;;;3.57;;
5688;SDS011;2869;50.432;8.680;2023-06-14T07:13:05;5.80;;;3.40;;
5688;SDS011;2869;50.432;8.680;2023-06-14T07:15:32;4.43;;;3.60;;
5688;SDS011;2869;50.432;8.680;2023-06-14T07:17:58;7.07;;;4.03;;
5688;SDS011;2869;50.432;8.680;2023-06-14T07:20:25;5.27;;;4.20;;
5688;SDS011;2869;50.432;8.680;2023-06-14T07:22:52;6.83;;;4.30;;
5688;SDS011;2869;50.432;8.680;2023-06-14T07:25:20;4.63;;;3.70;;
5688;SDS011;2869;50.432;8.680;2023-06-14T07:27:47;4.93;;;4.30;;
5688;SDS011;2869;50.432;8.680;2023-06-14T07:30:14;3.80;;;3.50;;
5688;SDS011;2869;50.432;8.680;2023-06-14T07:32:40;6.83;;;3.97;;
5688;SDS011;2869;50.432;8.680;2023-06-14T07:35:07;4.00;;;3.70;;
5688;SDS011;2869;50.432;8.680;2023-06-14T07:37:34;4.40;;;4.00;;
5688;SDS011;2869;50.432;8.680;2023-06-14T07:40:01;5.60;;;3.50;;
5688;SDS011;2869;50.432;8.680;2023-06-14T07:42:33;7.40;;;3.70;;
5688;SDS011;2869;50.432;8.680;2023-06-14T07:45:00;8.03;;;3.80;;
5688;SDS011;2869;50.432;8.680;2023-06-14T07:47:26;10.57;;;3.70;;
5688;SDS011;2869;50.432;8.680;2023-06-14T07:49:53;5.27;;;3.43;;
5688;SDS011;2869;50.432;8.680;2023-06-14T07:52:20;4.33;;;3.90;;
5688;SDS011;2869;50.432;8.680;2023-06-14T07:54:47;3.77;;;3.10;;
5688;SDS011;2869;50.432;8.680;2023-06-14T07:57:13;9.83;;;3.97;;
5688;SDS011;2869;50.432;8.680;2023-06-14T07:59:41;3.50;;;3.20;;
5688;SDS011;2869;50.432;8.680;2023-06-14T08:02:08;12.30;;;3.30;;
5688;SDS011;2869;50.432;8.680;2023-06-14T08:04:34;7.17;;;3.43;;
5688;SDS011;2869;50.432;8.680;2023-06-14T08:07:01;8.10;;;3.80;;
5688;SDS011;2869;50.432;8.680;2023-06-14T08:09:28;5.53;;;3.70;;
5688;SDS011;2869;50.432;8.680;2023-06-14T08:11:55;4.90;;;3.67;;
5688;SDS011;2869;50.432;8.680;2023-06-14T08:14:21;5.63;;;3.50;;
5688;SDS011;2869;50.432;8.680;2023-06-14T08:16:49;5.00;;;3.63;;
5688;SDS011;2869;50.432;8.680;2023-06-14T08:19:16;8.30;;;3.57;;
5688;SDS011;2869;50.432;8.680;2023-06-14T08:21:43;6.33;;;3.37;;
5688;SDS011;2869;50.432;8.680;2023-06-14T08:24:11;4.30;;;2.80;;
5688;SDS011;2869;50.432;8.680;2023-06-14T08:26:38;3.20;;;3.00;;
5688;SDS011;2869;50.432;8.680;2023-06-14T08:29:04;2.80;;;2.60;;
5688;SDS011;2869;50.432;8.680;2023-06-14T08:31:31;3.40;;;3.10;;
5688;SDS011;2869;50.432;8.680;2023-06-14T08:33:59;4.67;;;2.83;;
5688;SDS011;2869;50.432;8.680;2023-06-14T08:36:26;3.10;;;2.90;;
5688;SDS011;2869;50.432;8.680;2023-06-14T08:38:53;2.83;;;2.60;;
5688;SDS011;2869;50.432;8.680;2023-06-14T08:41:21;3.40;;;2.67;;
5688;SDS011;2869;50.432;8.680;2023-06-14T08:43:49;2.70;;;2.50;;
5688;SDS011;2869;50.432;8.680;2023-06-14T08:46:17;4.70;;;3.03;;
5688;SDS011;2869;50.432;8.680;2023-06-14T08:48:46;3.50;;;3.20;;
5688;SDS011;2869;50.432;8.680;2023-06-14T08:51:16;3.40;;;3.10;;
5688;SDS011;2869;50.432;8.680;2023-06-14T08:53:46;5.67;;;3.40;;
5688;SDS011;2869;50.432;8.680;2023-06-14T08:56:18;9.30;;;4.07;;
5688;SDS011;2869;50.432;8.680;2023-06-14T08:58:45;3.47;;;3.17;;
5688;SDS011;2869;50.432;8.680;2023-06-14T09:01:13;4.77;;;3.50;;
5688;SDS011;2869;50.432;8.680;2023-06-14T09:03:42;6.10;;;3.00;;
5688;SDS011;2869;50.432;8.680;2023-06-14T09:06:09;5.17;;;3.50;;
5688;SDS011;2869;50.432;8.680;2023-06-14T09:08:40;4.13;;;3.17;;
5688;SDS011;2869;50.432;8.680;2023-06-14T09:11:08;3.40;;;3.20;;
5688;SDS011;2869;50.432;8.680;2023-06-14T09:13:36;5.30;;;3.10;;
5688;SDS011;2869;50.432;8.680;2023-06-14T09:16:03;6.80;;;3.60;;
5688;SDS011;2869;50.432;8.680;2023-06-14T09:18:34;5.40;;;3.30;;
5688;SDS011;2869;50.432;8.680;2023-06-14T09:21:02;3.50;;;3.15;;
5688;SDS011;2869;50.432;8.680;2023-06-14T09:23:28;4.53;;;3.10;;
5688;SDS011;2869;50.432;8.680;2023-06-14T09:25:57;5.83;;;3.50;;
5688;SDS011;2869;50.432;8.680;2023-06-14T09:28:26;4.60;;;3.00;;
5688;SDS011;2869;50.432;8.680;2023-06-14T09:30:54;5.30;;;3.50;;
5688;SDS011;2869;50.432;8.680;2023-06-14T09:33:20;4.13;;;3.27;;
5688;SDS011;2869;50.432;8.680;2023-06-14T09:35:50;6.33;;;3.50;;
5688;SDS011;2869;50.432;8.680;2023-06-14T09:38:17;6.33;;;4.00;;
5688;SDS011;2869;50.432;8.680;2023-06-14T09:40:44;6.30;;;3.73;;
5688;SDS011;2869;50.432;8.680;2023-06-14T09:43:12;6.37;;;3.63;;
5688;SDS011;2869;50.432;8.680;2023-06-14T09:45:39;8.70;;;3.47;;
5688;SDS011;2869;50.432;8.680;2023-06-14T09:48:06;4.13;;;3.13;;
5688;SDS011;2869;50.432;8.680;2023-06-14T09:50:34;4.50;;;3.43;;
5688;SDS011;2869;50.432;8.680;2023-06-14T09:53:02;4.73;;;3.23;;
5688;SDS011;2869;50.432;8.680;2023-06-14T09:55:33;3.97;;;3.60;;
5688;SDS011;2869;50.432;8.680;2023-06-14T09:58:03;4.63;;;3.33;;
5688;SDS011;2869;50.432;8.680;2023-06-14T10:00:33;3.53;;;3.23;;
5688;SDS011;2869;50.432;8.680;2023-06-14T10:03:09;4.53;;;3.43;;
5688;SDS011;2869;50.432;8.680;2023-06-14T10:05:38;3.60;;;3.30;;
5688;SDS011;2869;50.432;8.680;2023-06-14T10:08:08;6.37;;;3.77;;
5688;SDS011;2869;50.432;8.680;2023-06-14T10:10:37;6.17;;;3.63;;
5688;SDS011;2869;50.432;8.680;2023-06-14T10:13:05;5.17;;;3.70;;
5688;SDS011;2869;50.432;8.680;2023-06-14T10:15:35;3.87;;;3.57;;
5688;SDS011;2869;50.432;8.680;2023-06-14T10:18:10;4.53;;;3.73;;
5688;SDS011;2869;50.432;8.680;2023-06-14T10:20:48;3.97;;;3.40;;
5688;SDS011;2869;50.432;8.680;2023-06-14T10:23:21;7.30;;;3.47;;
5688;SDS011;2869;50.432;8.680;2023-06-14T10:25:50;3.70;;;3.33;;
5688;SDS011;2869;50.432;8.680;2023-06-14T10:28:21;7.30;;;3.53;;
5688;SDS011;2869;50.432;8.680;2023-06-14T10:31:03;3.53;;;3.00;;
5688;SDS011;2869;50.432;8.680;2023-06-14T10:33:32;4.30;;;2.93;;
5688;SDS011;2869;50.432;8.680;2023-06-14T10:36:09;5.50;;;3.30;;
5688;SDS011;2869;50.432;8.680;2023-06-14T10:38:56;2.93;;;2.73;;
5688;SDS011;2869;50.432;8.680;2023-06-14T10:41:23;3.50;;;3.20;;
5688;SDS011;2869;50.432;8.680;2023-06-14T10:43:52;3.70;;;3.33;;
5688;SDS011;2869;50.432;8.680;2023-06-14T10:46:20;4.93;;;3.03;;
5688;SDS011;2869;50.432;8.680;2023-06-14T10:48:48;7.17;;;3.23;;
5688;SDS011;2869;50.432;8.680;2023-06-14T10:51:15;3.93;;;3.10;;
5688;SDS011;2869;50.432;8.680;2023-06-14T10:53:45;4.50;;;3.27;;
5688;SDS011;2869;50.432;8.680;2023-06-14T10:56:22;3.40;;;3.10;;
5688;SDS011;2869;50.432;8.680;2023-06-14T10:58:51;3.63;;;3.30;;
5688;SDS011;2869;50.432;8.680;2023-06-14T11:01:19;5.38;;;3.13;;
5688;SDS011;2869;50.432;8.680;2023-06-14T11:04:00;4.57;;;3.23;;
5688;SDS011;2869;50.432;8.680;2023-06-14T11:06:36;4.60;;;3.30;;
5688;SDS011;2869;50.432;8.680;2023-06-14T11:12:11;6.55;;;2.83;;
5688;SDS011;2869;50.432;8.680;2023-06-14T11:14:39;4.03;;;3.03;;
5688;SDS011;2869;50.432;8.680;2023-06-14T11:17:07;6.18;;;3.33;;
5688;SDS011;2869;50.432;8.680;2023-06-14T11:19:33;3.10;;;2.90;;
5688;SDS011;2869;50.432;8.680;2023-06-14T11:22:01;3.50;;;3.00;;
5688;SDS011;2869;50.432;8.680;2023-06-14T11:24:27;4.93;;;3.27;;
5688;SDS011;2869;50.432;8.680;2023-06-14T11:26:55;5.10;;;3.80;;
5688;SDS011;2869;50.432;8.680;2023-06-14T11:29:22;3.53;;;3.10;;
5688;SDS011;2869;50.432;8.680;2023-06-14T11:31:49;4.67;;;2.80;;
5688;SDS011;2869;50.432;8.680;2023-06-14T11:34:17;3.73;;;2.90;;
5688;SDS011;2869;50.432;8.680;2023-06-14T11:36:44;22.40;;;16.70;;
5688;SDS011;2869;50.432;8.680;2023-06-14T11:39:12;8.73;;;7.33;;
5688;SDS011;2869;50.432;8.680;2023-06-14T11:41:40;15.80;;;6.20;;
5688;SDS011;2869;50.432;8.680;2023-06-14T11:44:08;4.00;;;3.70;;
5688;SDS011;2869;50.432;8.680;2023-06-14T11:46:35;3.90;;;3.47;;
5688;SDS011;2869;50.432;8.680;2023-06-14T11:49:02;5.00;;;3.60;;
5688;SDS011;2869;50.432;8.680;2023-06-14T11:51:30;4.63;;;3.20;;
5688;SDS011;2869;50.432;8.680;2023-06-14T11:53:58;3.10;;;2.90;;
5688;SDS011;2869;50.432;8.680;2023-06-14T11:56:25;3.40;;;3.20;;
5688;SDS011;2869;50.432;8.680;2023-06-14T11:58:52;19.53;;;10.13;;
5688;SDS011;2869;50.432;8.680;2023-06-14T12:01:21;4.47;;;3.50;;
5688;SDS011;2869;50.432;8.680;2023-06-14T12:03:48;4.40;;;2.97;;
5688;SDS011;2869;50.432;8.680;2023-06-14T12:06:15;5.20;;;3.10;;
5688;SDS011;2869;50.432;8.680;2023-06-14T12:08:44;4.13;;;2.97;;
5688;SDS011;2869;50.432;8.680;2023-06-14T12:11:14;6.30;;;2.80;;
5688;SDS011;2869;50.432;8.680;2023-06-14T12:13:42;4.37;;;3.40;;
5688;SDS011;2869;50.432;8.680;2023-06-14T12:16:09;3.77;;;3.47;;
5688;SDS011;2869;50.432;8.680;2023-06-14T12:18:37;3.30;;;3.00;;
5688;SDS011;2869;50.432;8.680;2023-06-14T12:21:06;3.90;;;3.50;;
5688;SDS011;2869;50.432;8.680;2023-06-14T12:23:44;5.83;;;3.20;;
5688;SDS011;2869;50.432;8.680;2023-06-14T12:26:14;3.60;;;3.30;;
5688;SDS011;2869;50.432;8.680;2023-06-14T12:28:42;5.77;;;3.50;;
5688;SDS011;2869;50.432;8.680;2023-06-14T12:31:10;7.53;;;3.47;;
5688;SDS011;2869;50.432;8.680;2023-06-14T12:33:38;3.30;;;3.00;;
5688;SDS011;2869;50.432;8.680;2023-06-14T12:36:05;3.40;;;3.10;;
5688;SDS011;2869;50.432;8.680;2023-06-14T12:38:33;13.43;;;3.57;;
5688;SDS011;2869;50.432;8.680;2023-06-14T12:41:01;7.43;;;3.63;;
5688;SDS011;2869;50.432;8.680;2023-06-14T12:43:28;5.20;;;3.93;;
5688;SDS011;2869;50.432;8.680;2023-06-14T12:45:54;5.10;;;3.37;;
5688;SDS011;2869;50.432;8.680;2023-06-14T12:48:21;6.10;;;3.77;;
5688;SDS011;2869;50.432;8.680;2023-06-14T12:50:48;3.77;;;3.43;;
5688;SDS011;2869;50.432;8.680;2023-06-14T12:53:14;3.83;;;2.80;;
5688;SDS011;2869;50.432;8.680;2023-06-14T12:55:42;3.40;;;3.10;;
5688;SDS011;2869;50.432;8.680;2023-06-14T12:58:10;3.17;;;2.93;;
5688;SDS011;2869;50.432;8.680;2023-06-14T13:00:37;3.60;;;3.30;;
5688;SDS011;2869;50.432;8.680;2023-06-14T13:03:05;7.50;;;4.40;;
5688;SDS011;2869;50.432;8.680;2023-06-14T13:05:31;3.73;;;3.43;;
5688;SDS011;2869;50.432;8.680;2023-06-14T13:07:58;3.50;;;3.07;;
5688;SDS011;2869;50.432;8.680;2023-06-14T13:10:25;3.93;;;2.80;;
5688;SDS011;2869;50.432;8.680;2023-06-14T13:12:52;3.80;;;3.00;;
5688;SDS011;2869;50.432;8.680;2023-06-14T13:15:21;7.37;;;3.30;;
5688;SDS011;2869;50.432;8.680;2023-06-14T13:17:47;3.73;;;3.43;;
5688;SDS011;2869;50.432;8.680;2023-06-14T13:20:14;3.63;;;3.10;;
5688;SDS011;2869;50.432;8.680;2023-06-14T13:22:41;3.57;;;3.27;;
5688;SDS011;2869;50.432;8.680;2023-06-14T13:25:08;5.57;;;3.27;;
5688;SDS011;2869;50.432;8.680;2023-06-14T13:27:35;4.13;;;3.20;;
5688;SDS011;2869;50.432;8.680;2023-06-14T13:30:02;6.57;;;3.97;;
5688;SDS011;2869;50.432;8.680;2023-06-14T13:32:31;4.07;;;3.47;;
5688;SDS011;2869;50.432;8.680;2023-06-14T13:34:58;7.43;;;4.20;;
5688;SDS011;2869;50.432;8.680;2023-06-14T13:37:24;4.10;;;3.50;;
5688;SDS011;2869;50.432;8.680;2023-06-14T13:39:51;3.63;;;3.33;;
5688;SDS011;2869;50.432;8.680;2023-06-14T13:42:18;4.37;;;3.67;;
5688;SDS011;2869;50.432;8.680;2023-06-14T13:44:45;7.47;;;3.20;;
5688;SDS011;2869;50.432;8.680;2023-06-14T13:47:11;3.33;;;3.13;;
5688;SDS011;2869;50.432;8.680;2023-06-14T13:49:39;3.73;;;3.20;;
5688;SDS011;2869;50.432;8.680;2023-06-14T13:52:06;3.13;;;2.80;;
5688;SDS011;2869;50.432;8.680;2023-06-14T13:54:33;3.60;;;3.30;;
5688;SDS011;2869;50.432;8.680;2023-06-14T13:57:00;6.80;;;3.00;;
5688;SDS011;2869;50.432;8.680;2023-06-14T13:59:27;5.60;;;3.53;;
5688;SDS011;2869;50.432;8.680;2023-06-14T14:01:54;3.80;;;3.07;;
5688;SDS011;2869;50.432;8.680;2023-06-14T14:04:20;5.00;;;3.67;;
5688;SDS011;2869;50.432;8.680;2023-06-14T14:06:48;5.13;;;3.00;;
5688;SDS011;2869;50.432;8.680;2023-06-14T14:09:15;6.73;;;3.60;;
5688;SDS011;2869;50.432;8.680;2023-06-14T14:11:41;3.60;;;3.30;;
5688;SDS011;2869;50.432;8.680;2023-06-14T14:14:08;3.70;;;3.40;;
5688;SDS011;2869;50.432;8.680;2023-06-14T14:16:35;6.70;;;3.20;;
5688;SDS011;2869;50.432;8.680;2023-06-14T14:19:02;11.00;;;3.80;;
5688;SDS011;2869;50.432;8.680;2023-06-14T14:21:29;8.87;;;3.50;;
5688;SDS011;2869;50.432;8.680;2023-06-14T14:23:57;3.50;;;3.20;;
5688;SDS011;2869;50.432;8.680;2023-06-14T14:26:24;3.73;;;3.33;;
5688;SDS011;2869;50.432;8.680;2023-06-14T14:28:50;3.40;;;3.10;;
5688;SDS011;2869;50.432;8.680;2023-06-14T14:31:17;4.10;;;3.40;;
5688;SDS011;2869;50.432;8.680;2023-06-14T14:33:44;6.90;;;3.10;;
5688;SDS011;2869;50.432;8.680;2023-06-14T14:36:10;10.80;;;2.93;;
5688;SDS011;2869;50.432;8.680;2023-06-14T14:38:38;3.43;;;3.13;;
5688;SDS011;2869;50.432;8.680;2023-06-14T14:41:06;3.50;;;3.17;;
5688;SDS011;2869;50.432;8.680;2023-06-14T14:43:33;4.97;;;3.30;;
5688;SDS011;2869;50.432;8.680;2023-06-14T14:46:00;3.60;;;2.93;;
5688;SDS011;2869;50.432;8.680;2023-06-14T14:48:26;4.63;;;3.10;;
5688;SDS011;2869;50.432;8.680;2023-06-14T14:50:53;3.43;;;3.20;;
5688;SDS011;2869;50.432;8.680;2023-06-14T14:53:20;4.00;;;3.60;;
5688;SDS011;2869;50.432;8.680;2023-06-14T14:55:46;3.87;;;3.40;;
5688;SDS011;2869;50.432;8.680;2023-06-14T14:58:14;3.77;;;3.37;;
5688;SDS011;2869;50.432;8.680;2023-06-14T15:00:42;4.67;;;3.50;;
5688;SDS011;2869;50.432;8.680;2023-06-14T15:03:09;4.00;;;3.53;;
5688;SDS011;2869;50.432;8.680;2023-06-14T15:05:36;5.30;;;4.80;;
5688;SDS011;2869;50.432;8.680;2023-06-14T15:08:03;4.30;;;3.90;;
5688;SDS011;2869;50.432;8.680;2023-06-14T15:10:30;4.67;;;3.50;;
5688;SDS011;2869;50.432;8.680;2023-06-14T15:12:57;4.60;;;2.93;;
5688;SDS011;2869;50.432;8.680;2023-06-14T15:15:25;5.93;;;3.40;;
5688;SDS011;2869;50.432;8.680;2023-06-14T15:17:51;4.80;;;3.30;;